sensor_id;sensor_type;location;lat;lon;timestamp;P1;durP1;ratioP1;P2;durP2;ratioP2
16025;SDS011;8117;52.488;13.460;2023-08-06T00:02:20;4.77;;;2.40;;
16025;SDS011;8117;52.488;13.460;2023-08-06T00:04:48;3.33;;;2.63;;
16025;SDS011;8117;52.488;13.460;2023-08-06T00:07:18;2.63;;;2.20;;
16025;SDS011;8117;52.488;13.460;2023-08-06T00:09:45;3.50;;;2.67;;
16025;SDS011;8117;52.488;13.460;2023-08-06T00:12:11;3.93;;;2.80;;
16025;SDS011;8117;52.488;13.460;2023-08-06T00:14:43;3.77;;;2.73;;
16025;SDS011;8117;52.488;13.460;2023-08-06T00:20:23;4.63;;;2.80;;
16025;SDS011;8117;52.488;13.460;2023-08-06T00:22:51;3.10;;;2.27;;
16025;SDS011;8117;52.488;13.460;2023-08-06T00:25:20;3.53;;;2.33;;
16025;SDS011;8117;52.488;13.460;2023-08-06T00:27:55;3.43;;;2.50;;
16025;SDS011;8117;52.488;13.460;2023-08-06T00:30:24;2.77;;;2.00;;
16025;SDS011;8117;52.488;13.460;2023-08-06T00:33:00;2.80;;;1.83;;
16025;SDS011;8117;52.488;13.460;2023-08-06T00:35:26;2.53;;;2.33;;
16025;SDS011;8117;52.488;13.460;2023-08-06T00:37:55;3.47;;;2.83;;
16025;SDS011;8117;52.488;13.460;2023-08-06T00:40:22;3.33;;;2.37;;
16025;SDS011;8117;52.488;13.460;2023-08-06T00:42:49;3.40;;;2.80;;
16025;SDS011;8117;52.488;13.460;2023-08-06T00:45:25;2.27;;;1.73;;
16025;SDS011;8117;52.488;13.460;2023-08-06T00:47:56;3.10;;;2.40;;
16025;SDS011;8117;52.488;13.460;2023-08-06T00:50:32;2.80;;;2.50;;
16025;SDS011;8117;52.488;13.460;2023-08-06T00:52:59;3.37;;;2.50;;
16025;SDS011;8117;52.488;13.460;2023-08-06T00:55:29;3.17;;;2.20;;
16025;SDS011;8117;52.488;13.460;2023-08-06T00:57:56;2.92;;;2.20;;
16025;SDS011;8117;52.488;13.460;2023-08-06T01:00:29;2.93;;;2.33;;
16025;SDS011;8117;52.488;13.460;2023-08-06T01:02:56;4.53;;;2.47;;
16025;SDS011;8117;52.488;13.460;2023-08-06T01:05:25;4.30;;;2.83;;
16025;SDS011;8117;52.488;13.460;2023-08-06T01:07:56;2.97;;;2.50;;
16025;SDS011;8117;52.488;13.460;2023-08-06T01:10:44;2.50;;;2.22;;
16025;SDS011;8117;52.488;13.460;2023-08-06T01:13:16;3.37;;;2.63;;
16025;SDS011;8117;52.488;13.460;2023-08-06T01:15:50;3.80;;;2.83;;
16025;SDS011;8117;52.488;13.460;2023-08-06T01:18:22;3.13;;;2.00;;
16025;SDS011;8117;52.488;13.460;2023-08-06T01:20:53;2.90;;;2.10;;
16025;SDS011;8117;52.488;13.460;2023-08-06T01:23:20;3.10;;;2.20;;
16025;SDS011;8117;52.488;13.460;2023-08-06T01:25:55;3.10;;;2.27;;
16025;SDS011;8117;52.488;13.460;2023-08-06T01:28:27;2.83;;;2.03;;
16025;SDS011;8117;52.488;13.460;2023-08-06T01:30:57;2.07;;;1.87;;
16025;SDS011;8117;52.488;13.460;2023-08-06T01:33:26;3.73;;;2.60;;
16025;SDS011;8117;52.488;13.460;2023-08-06T01:36:06;5.10;;;2.63;;
16025;SDS011;8117;52.488;13.460;2023-08-06T01:38:33;3.83;;;2.33;;
16025;SDS011;8117;52.488;13.460;2023-08-06T01:41:09;3.57;;;2.17;;
16025;SDS011;8117;52.488;13.460;2023-08-06T01:43:36;5.37;;;2.47;;
16025;SDS011;8117;52.488;13.460;2023-08-06T01:46:08;3.23;;;2.20;;
16025;SDS011;8117;52.488;13.460;2023-08-06T01:48:38;2.17;;;1.80;;
16025;SDS011;8117;52.488;13.460;2023-08-06T01:51:07;3.40;;;2.43;;
16025;SDS011;8117;52.488;13.460;2023-08-06T01:53:33;3.33;;;2.50;;
16025;SDS011;8117;52.488;13.460;2023-08-06T01:56:03;4.40;;;2.33;;
16025;SDS011;8117;52.488;13.460;2023-08-06T01:58:30;2.50;;;1.97;;
16025;SDS011;8117;52.488;13.460;2023-08-06T02:00:57;3.30;;;2.30;;
16025;SDS011;8117;52.488;13.460;2023-08-06T02:03:27;3.60;;;2.97;;
16025;SDS011;8117;52.488;13.460;2023-08-06T02:05:58;3.47;;;2.00;;
16025;SDS011;8117;52.488;13.460;2023-08-06T02:08:26;3.93;;;2.50;;
16025;SDS011;8117;52.488;13.460;2023-08-06T02:10:53;5.00;;;2.60;;
16025;SDS011;8117;52.488;13.460;2023-08-06T02:13:20;2.77;;;2.17;;
16025;SDS011;8117;52.488;13.460;2023-08-06T02:15:55;4.77;;;2.97;;
16025;SDS011;8117;52.488;13.460;2023-08-06T02:18:22;3.47;;;2.77;;
16025;SDS011;8117;52.488;13.460;2023-08-06T02:20:56;2.30;;;1.90;;
16025;SDS011;8117;52.488;13.460;2023-08-06T02:23:24;2.33;;;2.13;;
16025;SDS011;8117;52.488;13.460;2023-08-06T02:25:58;5.60;;;3.00;;
16025;SDS011;8117;52.488;13.460;2023-08-06T02:28:28;3.97;;;2.43;;
16025;SDS011;8117;52.488;13.460;2023-08-06T02:31:04;3.80;;;2.53;;
16025;SDS011;8117;52.488;13.460;2023-08-06T02:33:34;4.10;;;2.20;;
16025;SDS011;8117;52.488;13.460;2023-08-06T02:36:02;2.83;;;1.90;;
16025;SDS011;8117;52.488;13.460;2023-08-06T02:38:29;7.20;;;2.83;;
16025;SDS011;8117;52.488;13.460;2023-08-06T02:40:58;2.90;;;2.10;;
16025;SDS011;8117;52.488;13.460;2023-08-06T02:43:34;3.40;;;2.20;;
16025;SDS011;8117;52.488;13.460;2023-08-06T02:46:01;2.33;;;2.00;;
16025;SDS011;8117;52.488;13.460;2023-08-06T02:48:37;2.87;;;2.10;;
16025;SDS011;8117;52.488;13.460;2023-08-06T02:51:04;2.57;;;2.13;;
16025;SDS011;8117;52.488;13.460;2023-08-06T02:53:35;3.33;;;2.30;;
16025;SDS011;8117;52.488;13.460;2023-08-06T02:56:03;3.30;;;2.00;;
16025;SDS011;8117;52.488;13.460;2023-08-06T02:58:30;2.73;;;1.73;;
16025;SDS011;8117;52.488;13.460;2023-08-06T03:01:02;2.90;;;1.90;;
16025;SDS011;8117;52.488;13.460;2023-08-06T03:03:32;2.60;;;1.87;;
16025;SDS011;8117;52.488;13.460;2023-08-06T03:06:02;3.40;;;2.27;;
16025;SDS011;8117;52.488;13.460;2023-08-06T03:08:31;2.60;;;1.90;;
16025;SDS011;8117;52.488;13.460;2023-08-06T03:11:06;4.03;;;2.17;;
16025;SDS011;8117;52.488;13.460;2023-08-06T03:13:36;2.63;;;1.60;;
16025;SDS011;8117;52.488;13.460;2023-08-06T03:16:03;3.40;;;2.20;;
16025;SDS011;8117;52.488;13.460;2023-08-06T03:18:32;2.63;;;1.70;;
16025;SDS011;8117;52.488;13.460;2023-08-06T03:20:59;3.97;;;2.20;;
16025;SDS011;8117;52.488;13.460;2023-08-06T03:23:26;2.10;;;1.60;;
16025;SDS011;8117;52.488;13.460;2023-08-06T03:26:03;2.87;;;2.10;;
16025;SDS011;8117;52.488;13.460;2023-08-06T03:28:34;3.30;;;1.73;;
16025;SDS011;8117;52.488;13.460;2023-08-06T03:31:01;3.23;;;1.97;;
16025;SDS011;8117;52.488;13.460;2023-08-06T03:33:30;3.50;;;2.03;;
16025;SDS011;8117;52.488;13.460;2023-08-06T03:35:57;3.43;;;2.27;;
16025;SDS011;8117;52.488;13.460;2023-08-06T03:38:26;4.03;;;2.30;;
16025;SDS011;8117;52.488;13.460;2023-08-06T03:40:52;2.00;;;1.50;;
16025;SDS011;8117;52.488;13.460;2023-08-06T03:43:25;2.63;;;1.93;;
16025;SDS011;8117;52.488;13.460;2023-08-06T03:46:05;2.87;;;2.10;;
16025;SDS011;8117;52.488;13.460;2023-08-06T03:48:32;2.70;;;2.03;;
16025;SDS011;8117;52.488;13.460;2023-08-06T03:51:02;2.30;;;2.03;;
16025;SDS011;8117;52.488;13.460;2023-08-06T03:53:31;3.70;;;2.30;;
16025;SDS011;8117;52.488;13.460;2023-08-06T03:55:59;3.60;;;2.27;;
16025;SDS011;8117;52.488;13.460;2023-08-06T03:58:26;3.10;;;2.10;;
16025;SDS011;8117;52.488;13.460;2023-08-06T04:00:59;3.30;;;2.50;;
16025;SDS011;8117;52.488;13.460;2023-08-06T04:03:30;2.90;;;2.33;;
16025;SDS011;8117;52.488;13.460;2023-08-06T04:05:59;2.57;;;2.07;;
16025;SDS011;8117;52.488;13.460;2023-08-06T04:08:26;3.97;;;2.10;;
16025;SDS011;8117;52.488;13.460;2023-08-06T04:10:53;3.87;;;2.20;;
16025;SDS011;8117;52.488;13.460;2023-08-06T04:13:20;2.70;;;1.77;;
16025;SDS011;8117;52.488;13.460;2023-08-06T04:15:47;3.00;;;2.00;;
16025;SDS011;8117;52.488;13.460;2023-08-06T04:18:16;3.83;;;2.30;;
16025;SDS011;8117;52.488;13.460;2023-08-06T04:20:44;3.03;;;2.17;;
16025;SDS011;8117;52.488;13.460;2023-08-06T04:23:11;4.57;;;2.40;;
16025;SDS011;8117;52.488;13.460;2023-08-06T04:25:38;3.07;;;2.43;;
16025;SDS011;8117;52.488;13.460;2023-08-06T04:28:05;3.27;;;1.90;;
16025;SDS011;8117;52.488;13.460;2023-08-06T04:30:32;8.50;;;2.67;;
16025;SDS011;8117;52.488;13.460;2023-08-06T04:32:59;4.10;;;1.90;;
16025;SDS011;8117;52.488;13.460;2023-08-06T04:35:26;3.27;;;2.30;;
16025;SDS011;8117;52.488;13.460;2023-08-06T04:38:06;3.60;;;2.20;;
16025;SDS011;8117;52.488;13.460;2023-08-06T04:40:46;2.80;;;2.13;;
16025;SDS011;8117;52.488;13.460;2023-08-06T04:43:15;2.77;;;2.20;;
16025;SDS011;8117;52.488;13.460;2023-08-06T04:45:45;3.47;;;2.00;;
16025;SDS011;8117;52.488;13.460;2023-08-06T04:48:20;2.97;;;2.20;;
16025;SDS011;8117;52.488;13.460;2023-08-06T04:51:04;2.33;;;1.93;;
16025;SDS011;8117;52.488;13.460;2023-08-06T04:53:32;3.50;;;2.70;;
16025;SDS011;8117;52.488;13.460;2023-08-06T04:56:00;2.37;;;1.73;;
16025;SDS011;8117;52.488;13.460;2023-08-06T04:58:27;5.43;;;2.23;;
16025;SDS011;8117;52.488;13.460;2023-08-06T05:00:53;3.40;;;2.63;;
16025;SDS011;8117;52.488;13.460;2023-08-06T05:03:20;3.73;;;2.27;;
16025;SDS011;8117;52.488;13.460;2023-08-06T05:05:47;2.57;;;2.10;;
16025;SDS011;8117;52.488;13.460;2023-08-06T05:08:15;4.17;;;2.10;;
16025;SDS011;8117;52.488;13.460;2023-08-06T05:10:44;4.23;;;3.03;;
16025;SDS011;8117;52.488;13.460;2023-08-06T05:13:12;2.70;;;1.90;;
16025;SDS011;8117;52.488;13.460;2023-08-06T05:15:39;3.10;;;1.73;;
16025;SDS011;8117;52.488;13.460;2023-08-06T05:18:07;3.57;;;2.00;;
16025;SDS011;8117;52.488;13.460;2023-08-06T05:20:52;2.90;;;2.03;;
16025;SDS011;8117;52.488;13.460;2023-08-06T05:23:27;2.33;;;1.87;;
16025;SDS011;8117;52.488;13.460;2023-08-06T05:25:56;3.20;;;2.13;;
16025;SDS011;8117;52.488;13.460;2023-08-06T05:28:22;3.00;;;1.80;;
16025;SDS011;8117;52.488;13.460;2023-08-06T05:30:49;2.30;;;2.10;;
16025;SDS011;8117;52.488;13.460;2023-08-06T05:33:16;7.13;;;2.20;;
16025;SDS011;8117;52.488;13.460;2023-08-06T05:35:50;3.03;;;2.30;;
16025;SDS011;8117;52.488;13.460;2023-08-06T05:38:29;2.67;;;1.93;;
16025;SDS011;8117;52.488;13.460;2023-08-06T05:40:57;2.97;;;1.77;;
16025;SDS011;8117;52.488;13.460;2023-08-06T05:43:26;2.40;;;1.90;;
16025;SDS011;8117;52.488;13.460;2023-08-06T05:45:55;1.90;;;1.60;;
16025;SDS011;8117;52.488;13.460;2023-08-06T05:48:22;2.93;;;1.73;;
16025;SDS011;8117;52.488;13.460;2023-08-06T05:50:50;3.43;;;2.27;;
16025;SDS011;8117;52.488;13.460;2023-08-06T05:53:16;3.63;;;2.20;;
16025;SDS011;8117;52.488;13.460;2023-08-06T05:55:43;4.40;;;1.70;;
16025;SDS011;8117;52.488;13.460;2023-08-06T05:58:12;2.33;;;1.90;;
16025;SDS011;8117;52.488;13.460;2023-08-06T06:00:39;4.20;;;2.30;;
16025;SDS011;8117;52.488;13.460;2023-08-06T06:03:08;5.53;;;1.80;;
16025;SDS011;8117;52.488;13.460;2023-08-06T06:05:43;2.83;;;1.97;;
16025;SDS011;8117;52.488;13.460;2023-08-06T06:08:10;3.57;;;1.80;;
16025;SDS011;8117;52.488;13.460;2023-08-06T06:10:36;3.33;;;2.03;;
16025;SDS011;8117;52.488;13.460;2023-08-06T06:13:07;3.10;;;2.27;;
16025;SDS011;8117;52.488;13.460;2023-08-06T06:15:41;2.87;;;2.20;;
16025;SDS011;8117;52.488;13.460;2023-08-06T06:18:08;3.40;;;2.13;;
16025;SDS011;8117;52.488;13.460;2023-08-06T06:20:35;4.10;;;2.30;;
16025;SDS011;8117;52.488;13.460;2023-08-06T06:23:01;3.00;;;1.60;;
16025;SDS011;8117;52.488;13.460;2023-08-06T06:25:28;2.33;;;1.83;;
16025;SDS011;8117;52.488;13.460;2023-08-06T06:27:55;6.03;;;2.23;;
16025;SDS011;8117;52.488;13.460;2023-08-06T06:30:28;3.87;;;2.40;;
16025;SDS011;8117;52.488;13.460;2023-08-06T06:33:00;3.73;;;2.43;;
16025;SDS011;8117;52.488;13.460;2023-08-06T06:35:26;3.10;;;1.80;;
16025;SDS011;8117;52.488;13.460;2023-08-06T06:37:53;3.30;;;2.37;;
16025;SDS011;8117;52.488;13.460;2023-08-06T06:40:22;2.77;;;1.73;;
16025;SDS011;8117;52.488;13.460;2023-08-06T06:42:54;4.70;;;2.27;;
16025;SDS011;8117;52.488;13.460;2023-08-06T06:45:24;2.60;;;2.13;;
16025;SDS011;8117;52.488;13.460;2023-08-06T06:48:03;2.90;;;2.00;;
16025;SDS011;8117;52.488;13.460;2023-08-06T06:50:35;3.73;;;1.83;;
16025;SDS011;8117;52.488;13.460;2023-08-06T06:53:04;3.20;;;1.93;;
16025;SDS011;8117;52.488;13.460;2023-08-06T06:55:31;3.10;;;2.07;;
16025;SDS011;8117;52.488;13.460;2023-08-06T06:57:57;3.37;;;2.10;;
16025;SDS011;8117;52.488;13.460;2023-08-06T07:00:24;3.23;;;2.03;;
16025;SDS011;8117;52.488;13.460;2023-08-06T07:02:53;4.33;;;2.07;;
16025;SDS011;8117;52.488;13.460;2023-08-06T07:05:24;3.07;;;2.17;;
16025;SDS011;8117;52.488;13.460;2023-08-06T07:07:53;5.77;;;2.00;;
16025;SDS011;8117;52.488;13.460;2023-08-06T07:10:19;4.23;;;2.63;;
16025;SDS011;8117;52.488;13.460;2023-08-06T07:13:20;3.40;;;2.20;;
16025;SDS011;8117;52.488;13.460;2023-08-06T07:15:37;3.47;;;2.13;;
16025;SDS011;8117;52.488;13.460;2023-08-06T07:18:12;4.13;;;2.70;;
16025;SDS011;8117;52.488;13.460;2023-08-06T07:20:49;3.43;;;2.27;;
16025;SDS011;8117;52.488;13.460;2023-08-06T07:23:16;2.97;;;2.07;;
16025;SDS011;8117;52.488;13.460;2023-08-06T07:25:48;4.27;;;2.50;;
16025;SDS011;8117;52.488;13.460;2023-08-06T07:28:16;3.30;;;2.47;;
16025;SDS011;8117;52.488;13.460;2023-08-06T07:30:43;4.60;;;2.33;;
16025;SDS011;8117;52.488;13.460;2023-08-06T07:33:15;3.47;;;2.20;;
16025;SDS011;8117;52.488;13.460;2023-08-06T07:35:42;3.10;;;2.10;;
16025;SDS011;8117;52.488;13.460;2023-08-06T07:38:10;3.67;;;2.70;;
16025;SDS011;8117;52.488;13.460;2023-08-06T07:40:38;4.33;;;2.47;;
16025;SDS011;8117;52.488;13.460;2023-08-06T07:43:06;3.80;;;2.63;;
16025;SDS011;8117;52.488;13.460;2023-08-06T07:45:35;3.43;;;2.67;;
16025;SDS011;8117;52.488;13.460;2023-08-06T07:48:02;3.10;;;2.40;;
16025;SDS011;8117;52.488;13.460;2023-08-06T07:50:30;4.60;;;2.40;;
16025;SDS011;8117;52.488;13.460;2023-08-06T07:52:56;3.33;;;2.27;;
16025;SDS011;8117;52.488;13.460;2023-08-06T07:55:24;2.43;;;2.07;;
16025;SDS011;8117;52.488;13.460;2023-08-06T07:57:51;2.77;;;2.20;;
16025;SDS011;8117;52.488;13.460;2023-08-06T08:00:19;3.43;;;2.00;;
16025;SDS011;8117;52.488;13.460;2023-08-06T08:02:46;3.27;;;1.87;;
16025;SDS011;8117;52.488;13.460;2023-08-06T08:05:13;2.53;;;2.17;;
16025;SDS011;8117;52.488;13.460;2023-08-06T08:07:40;4.03;;;2.60;;
16025;SDS011;8117;52.488;13.460;2023-08-06T08:10:07;3.67;;;2.53;;
16025;SDS011;8117;52.488;13.460;2023-08-06T08:12:38;5.47;;;3.00;;
16025;SDS011;8117;52.488;13.460;2023-08-06T08:15:05;3.73;;;2.53;;
16025;SDS011;8117;52.488;13.460;2023-08-06T08:17:32;3.53;;;2.50;;
16025;SDS011;8117;52.488;13.460;2023-08-06T08:19:59;2.67;;;1.97;;
16025;SDS011;8117;52.488;13.460;2023-08-06T08:22:26;4.07;;;1.87;;
16025;SDS011;8117;52.488;13.460;2023-08-06T08:24:53;3.23;;;2.20;;
16025;SDS011;8117;52.488;13.460;2023-08-06T08:27:20;2.60;;;1.70;;
16025;SDS011;8117;52.488;13.460;2023-08-06T08:30:04;2.50;;;2.10;;
16025;SDS011;8117;52.488;13.460;2023-08-06T08:32:33;2.37;;;1.87;;
16025;SDS011;8117;52.488;13.460;2023-08-06T08:35:00;3.20;;;2.30;;
16025;SDS011;8117;52.488;13.460;2023-08-06T08:37:29;2.87;;;2.33;;
16025;SDS011;8117;52.488;13.460;2023-08-06T08:39:55;4.50;;;2.60;;
16025;SDS011;8117;52.488;13.460;2023-08-06T08:42:24;3.27;;;2.23;;
16025;SDS011;8117;52.488;13.460;2023-08-06T08:44:53;2.80;;;2.20;;
16025;SDS011;8117;52.488;13.460;2023-08-06T08:47:32;3.20;;;2.47;;
16025;SDS011;8117;52.488;13.460;2023-08-06T08:50:07;4.43;;;2.75;;
16025;SDS011;8117;52.488;13.460;2023-08-06T08:52:39;3.80;;;2.10;;
16025;SDS011;8117;52.488;13.460;2023-08-06T08:55:06;3.37;;;2.33;;
16025;SDS011;8117;52.488;13.460;2023-08-06T08:57:36;3.50;;;2.45;;
16025;SDS011;8117;52.488;13.460;2023-08-06T09:00:03;4.60;;;2.60;;
16025;SDS011;8117;52.488;13.460;2023-08-06T09:02:32;4.20;;;2.67;;
16025;SDS011;8117;52.488;13.460;2023-08-06T09:05:00;3.63;;;2.30;;
16025;SDS011;8117;52.488;13.460;2023-08-06T09:07:29;4.40;;;2.50;;
16025;SDS011;8117;52.488;13.460;2023-08-06T09:10:05;6.30;;;2.57;;
16025;SDS011;8117;52.488;13.460;2023-08-06T09:12:33;4.03;;;2.63;;
16025;SDS011;8117;52.488;13.460;2023-08-06T09:15:03;5.07;;;3.38;;
16025;SDS011;8117;52.488;13.460;2023-08-06T09:17:32;4.15;;;2.65;;
16025;SDS011;8117;52.488;13.460;2023-08-06T09:19:59;3.53;;;2.45;;
16025;SDS011;8117;52.488;13.460;2023-08-06T09:22:26;4.72;;;2.90;;
16025;SDS011;8117;52.488;13.460;2023-08-06T09:25:01;3.08;;;2.35;;
16025;SDS011;8117;52.488;13.460;2023-08-06T09:27:34;4.97;;;2.67;;
16025;SDS011;8117;52.488;13.460;2023-08-06T09:30:02;5.18;;;2.85;;
16025;SDS011;8117;52.488;13.460;2023-08-06T09:32:35;4.32;;;3.03;;
16025;SDS011;8117;52.488;13.460;2023-08-06T09:35:13;4.47;;;2.73;;
16025;SDS011;8117;52.488;13.460;2023-08-06T09:37:41;3.60;;;2.43;;
16025;SDS011;8117;52.488;13.460;2023-08-06T09:40:22;4.03;;;2.87;;
16025;SDS011;8117;52.488;13.460;2023-08-06T09:42:51;4.33;;;2.80;;
16025;SDS011;8117;52.488;13.460;2023-08-06T09:45:18;3.58;;;2.72;;
16025;SDS011;8117;52.488;13.460;2023-08-06T09:47:48;4.88;;;3.08;;
16025;SDS011;8117;52.488;13.460;2023-08-06T09:50:19;5.87;;;2.93;;
16025;SDS011;8117;52.488;13.460;2023-08-06T09:52:49;4.55;;;3.25;;
16025;SDS011;8117;52.488;13.460;2023-08-06T09:55:25;5.43;;;2.50;;
16025;SDS011;8117;52.488;13.460;2023-08-06T10:00:42;4.80;;;3.20;;
16025;SDS011;8117;52.488;13.460;2023-08-06T10:03:26;7.23;;;3.97;;
16025;SDS011;8117;52.488;13.460;2023-08-06T10:05:59;5.70;;;2.90;;
16025;SDS011;8117;52.488;13.460;2023-08-06T10:08:27;3.70;;;2.40;;
16025;SDS011;8117;52.488;13.460;2023-08-06T10:11:12;2.83;;;2.10;;
16025;SDS011;8117;52.488;13.460;2023-08-06T10:13:43;2.70;;;1.45;;
16025;SDS011;8117;52.488;13.460;2023-08-06T10:16:17;4.07;;;1.60;;
16025;SDS011;8117;52.488;13.460;2023-08-06T10:18:45;1.70;;;1.43;;
16025;SDS011;8117;52.488;13.460;2023-08-06T10:21:15;2.17;;;1.40;;
16025;SDS011;8117;52.488;13.460;2023-08-06T10:23:42;2.35;;;1.40;;
16025;SDS011;8117;52.488;13.460;2023-08-06T10:26:08;2.50;;;1.60;;
16025;SDS011;8117;52.488;13.460;2023-08-06T10:28:35;1.88;;;1.33;;
16025;SDS011;8117;52.488;13.460;2023-08-06T10:31:03;1.63;;;1.50;;
16025;SDS011;8117;52.488;13.460;2023-08-06T10:33:39;2.30;;;1.47;;
16025;SDS011;8117;52.488;13.460;2023-08-06T10:36:17;3.90;;;1.20;;
16025;SDS011;8117;52.488;13.460;2023-08-06T10:38:44;1.70;;;1.23;;
16025;SDS011;8117;52.488;13.460;2023-08-06T10:41:15;2.30;;;1.57;;
16025;SDS011;8117;52.488;13.460;2023-08-06T10:43:43;2.00;;;1.40;;
16025;SDS011;8117;52.488;13.460;2023-08-06T10:46:10;2.57;;;1.63;;
16025;SDS011;8117;52.488;13.460;2023-08-06T10:48:38;2.57;;;1.60;;
16025;SDS011;8117;52.488;13.460;2023-08-06T10:51:07;2.25;;;1.88;;
16025;SDS011;8117;52.488;13.460;2023-08-06T10:53:36;2.40;;;1.60;;
16025;SDS011;8117;52.488;13.460;2023-08-06T10:56:13;2.20;;;1.77;;
16025;SDS011;8117;52.488;13.460;2023-08-06T10:58:42;2.00;;;1.40;;
16025;SDS011;8117;52.488;13.460;2023-08-06T11:04:10;1.53;;;1.20;;
16025;SDS011;8117;52.488;13.460;2023-08-06T11:06:41;1.50;;;1.40;;
16025;SDS011;8117;52.488;13.460;2023-08-06T11:09:12;1.63;;;1.20;;
16025;SDS011;8117;52.488;13.460;2023-08-06T11:11:38;2.83;;;1.50;;
16025;SDS011;8117;52.488;13.460;2023-08-06T11:14:05;2.60;;;1.92;;
16025;SDS011;8117;52.488;13.460;2023-08-06T11:16:35;2.38;;;1.80;;
16025;SDS011;8117;52.488;13.460;2023-08-06T11:19:02;2.13;;;1.65;;
16025;SDS011;8117;52.488;13.460;2023-08-06T11:21:29;2.07;;;1.67;;
16025;SDS011;8117;52.488;13.460;2023-08-06T11:23:56;1.53;;;1.43;;
16025;SDS011;8117;52.488;13.460;2023-08-06T11:26:29;1.97;;;1.47;;
16025;SDS011;8117;52.488;13.460;2023-08-06T11:28:56;1.53;;;1.43;;
16025;SDS011;8117;52.488;13.460;2023-08-06T11:31:25;2.60;;;1.50;;
16025;SDS011;8117;52.488;13.460;2023-08-06T11:33:52;3.47;;;1.60;;
16025;SDS011;8117;52.488;13.460;2023-08-06T11:36:28;1.80;;;1.50;;
16025;SDS011;8117;52.488;13.460;2023-08-06T11:38:55;1.83;;;1.63;;
16025;SDS011;8117;52.488;13.460;2023-08-06T11:41:29;2.77;;;1.73;;
16025;SDS011;8117;52.488;13.460;2023-08-06T11:43:56;2.60;;;1.33;;
16025;SDS011;8117;52.488;13.460;2023-08-06T11:46:51;2.67;;;1.80;;
16025;SDS011;8117;52.488;13.460;2023-08-06T11:49:21;3.83;;;2.03;;
16025;SDS011;8117;52.488;13.460;2023-08-06T11:51:49;3.40;;;1.90;;
16025;SDS011;8117;52.488;13.460;2023-08-06T11:54:16;2.23;;;1.67;;
16025;SDS011;8117;52.488;13.460;2023-08-06T11:56:49;7.27;;;2.10;;
16025;SDS011;8117;52.488;13.460;2023-08-06T11:59:22;3.53;;;2.17;;
16025;SDS011;8117;52.488;13.460;2023-08-06T12:01:48;2.53;;;1.67;;
16025;SDS011;8117;52.488;13.460;2023-08-06T12:04:15;2.57;;;1.90;;
16025;SDS011;8117;52.488;13.460;2023-08-06T12:06:44;4.77;;;2.07;;
16025;SDS011;8117;52.488;13.460;2023-08-06T12:09:10;3.13;;;1.90;;
16025;SDS011;8117;52.488;13.460;2023-08-06T12:11:37;3.57;;;1.97;;
16025;SDS011;8117;52.488;13.460;2023-08-06T12:14:08;2.87;;;1.80;;
16025;SDS011;8117;52.488;13.460;2023-08-06T12:16:36;4.00;;;1.90;;
16025;SDS011;8117;52.488;13.460;2023-08-06T12:19:03;3.27;;;2.00;;
16025;SDS011;8117;52.488;13.460;2023-08-06T12:21:30;4.33;;;1.83;;
16025;SDS011;8117;52.488;13.460;2023-08-06T12:23:59;2.77;;;1.97;;
16025;SDS011;8117;52.488;13.460;2023-08-06T12:26:26;1.60;;;1.50;;
16025;SDS011;8117;52.488;13.460;2023-08-06T12:28:53;4.80;;;2.10;;
16025;SDS011;8117;52.488;13.460;2023-08-06T12:31:23;2.80;;;2.07;;
16025;SDS011;8117;52.488;13.460;2023-08-06T12:33:50;3.20;;;2.00;;
16025;SDS011;8117;52.488;13.460;2023-08-06T12:36:18;3.43;;;1.97;;
16025;SDS011;8117;52.488;13.460;2023-08-06T12:38:48;3.93;;;2.33;;
16025;SDS011;8117;52.488;13.460;2023-08-06T12:41:17;3.50;;;2.33;;
16025;SDS011;8117;52.488;13.460;2023-08-06T12:43:44;3.03;;;2.10;;
16025;SDS011;8117;52.488;13.460;2023-08-06T12:46:11;3.37;;;2.33;;
16025;SDS011;8117;52.488;13.460;2023-08-06T12:48:39;5.00;;;2.27;;
16025;SDS011;8117;52.488;13.460;2023-08-06T12:51:06;3.73;;;2.43;;
16025;SDS011;8117;52.488;13.460;2023-08-06T12:53:35;4.47;;;2.60;;
16025;SDS011;8117;52.488;13.460;2023-08-06T12:56:05;4.27;;;3.03;;
16025;SDS011;8117;52.488;13.460;2023-08-06T12:58:32;3.57;;;2.57;;
16025;SDS011;8117;52.488;13.460;2023-08-06T13:00:59;8.43;;;3.30;;
16025;SDS011;8117;52.488;13.460;2023-08-06T13:03:29;3.77;;;2.73;;
16025;SDS011;8117;52.488;13.460;2023-08-06T13:05:59;7.47;;;3.47;;
16025;SDS011;8117;52.488;13.460;2023-08-06T13:08:36;8.43;;;3.23;;
16025;SDS011;8117;52.488;13.460;2023-08-06T13:11:10;5.40;;;2.47;;
16025;SDS011;8117;52.488;13.460;2023-08-06T13:13:39;6.13;;;3.30;;
16025;SDS011;8117;52.488;13.460;2023-08-06T13:19:09;5.37;;;2.93;;
16025;SDS011;8117;52.488;13.460;2023-08-06T13:25:14;4.03;;;2.60;;
16025;SDS011;8117;52.488;13.460;2023-08-06T13:27:42;4.53;;;2.90;;
16025;SDS011;8117;52.488;13.460;2023-08-06T13:30:12;3.67;;;2.77;;
16025;SDS011;8117;52.488;13.460;2023-08-06T13:32:44;3.30;;;2.43;;
16025;SDS011;8117;52.488;13.460;2023-08-06T13:35:23;4.83;;;2.50;;
16025;SDS011;8117;52.488;13.460;2023-08-06T13:37:53;4.30;;;2.97;;
16025;SDS011;8117;52.488;13.460;2023-08-06T13:40:22;4.50;;;2.63;;
16025;SDS011;8117;52.488;13.460;2023-08-06T13:42:50;5.37;;;2.47;;
16025;SDS011;8117;52.488;13.460;2023-08-06T13:45:22;5.03;;;2.93;;
16025;SDS011;8117;52.488;13.460;2023-08-06T13:47:49;3.97;;;2.60;;
16025;SDS011;8117;52.488;13.460;2023-08-06T13:50:20;4.27;;;2.57;;
16025;SDS011;8117;52.488;13.460;2023-08-06T13:52:50;5.00;;;2.33;;
16025;SDS011;8117;52.488;13.460;2023-08-06T13:55:20;3.90;;;2.70;;
16025;SDS011;8117;52.488;13.460;2023-08-06T13:57:50;3.40;;;2.20;;
16025;SDS011;8117;52.488;13.460;2023-08-06T14:00:17;3.83;;;2.80;;
16025;SDS011;8117;52.488;13.460;2023-08-06T14:02:53;3.77;;;2.60;;
16025;SDS011;8117;52.488;13.460;2023-08-06T14:05:37;4.60;;;2.57;;
16025;SDS011;8117;52.488;13.460;2023-08-06T14:08:04;4.27;;;2.63;;
16025;SDS011;8117;52.488;13.460;2023-08-06T14:10:36;5.07;;;3.00;;
16025;SDS011;8117;52.488;13.460;2023-08-06T14:13:07;3.60;;;2.50;;
16025;SDS011;8117;52.488;13.460;2023-08-06T14:18:32;7.73;;;2.63;;
16025;SDS011;8117;52.488;13.460;2023-08-06T14:21:09;5.57;;;2.83;;
16025;SDS011;8117;52.488;13.460;2023-08-06T14:23:36;4.10;;;2.57;;
16025;SDS011;8117;52.488;13.460;2023-08-06T14:26:03;3.27;;;2.47;;
16025;SDS011;8117;52.488;13.460;2023-08-06T14:28:35;2.20;;;1.80;;
16025;SDS011;8117;52.488;13.460;2023-08-06T14:31:32;2.23;;;1.73;;
16025;SDS011;8117;52.488;13.460;2023-08-06T14:34:16;2.83;;;2.03;;
16025;SDS011;8117;52.488;13.460;2023-08-06T14:36:51;3.20;;;2.10;;
16025;SDS011;8117;52.488;13.460;2023-08-06T14:39:53;1.80;;;1.30;;
16025;SDS011;8117;52.488;13.460;2023-08-06T14:42:28;2.37;;;1.60;;
16025;SDS011;8117;52.488;13.460;2023-08-06T14:45:19;3.37;;;1.60;;
16025;SDS011;8117;52.488;13.460;2023-08-06T14:48:02;1.20;;;0.97;;
16025;SDS011;8117;52.488;13.460;2023-08-06T14:50:50;2.30;;;1.33;;
16025;SDS011;8117;52.488;13.460;2023-08-06T14:53:26;4.90;;;2.10;;
16025;SDS011;8117;52.488;13.460;2023-08-06T14:56:09;1.80;;;1.30;;
16025;SDS011;8117;52.488;13.460;2023-08-06T14:59:01;3.03;;;1.60;;
16025;SDS011;8117;52.488;13.460;2023-08-06T15:01:34;4.00;;;1.63;;
16025;SDS011;8117;52.488;13.460;2023-08-06T15:04:01;1.47;;;0.97;;
16025;SDS011;8117;52.488;13.460;2023-08-06T15:06:30;1.60;;;1.00;;
16025;SDS011;8117;52.488;13.460;2023-08-06T15:09:07;1.57;;;1.33;;
16025;SDS011;8117;52.488;13.460;2023-08-06T15:12:12;1.03;;;0.90;;
16025;SDS011;8117;52.488;13.460;2023-08-06T15:14:24;3.63;;;1.40;;
16025;SDS011;8117;52.488;13.460;2023-08-06T15:16:52;2.33;;;1.43;;
16025;SDS011;8117;52.488;13.460;2023-08-06T15:19:30;1.73;;;1.30;;
16025;SDS011;8117;52.488;13.460;2023-08-06T15:21:59;5.30;;;1.93;;
16025;SDS011;8117;52.488;13.460;2023-08-06T15:24:26;1.50;;;1.03;;
16025;SDS011;8117;52.488;13.460;2023-08-06T15:26:58;1.70;;;1.13;;